createdAt,value
2022-11-16T00:01:18.511Z,86.52
2022-11-16T00:03:45.171Z,85.60
2022-11-16T00:06:12.280Z,85.87
2022-11-16T00:08:40.739Z,85.74
2022-11-16T00:11:14.993Z,85.72
2022-11-16T00:13:42.267Z,86.18
2022-11-16T00:16:13.382Z,86.79
2022-11-16T00:18:40.009Z,85.75
2022-11-16T00:21:06.763Z,85.39
2022-11-16T00:23:35.639Z,87.09
2022-11-16T00:26:06.247Z,86.43
2022-11-16T00:28:33.217Z,85.49
2022-11-16T00:31:00.872Z,87.52
2022-11-16T00:33:27.623Z,86.97
2022-11-16T00:35:54.240Z,85.30
2022-11-16T00:38:20.890Z,85.75
2022-11-16T00:40:47.696Z,84.34
2022-11-16T00:43:14.307Z,83.92
2022-11-16T00:45:41.912Z,86.06
2022-11-16T00:48:08.550Z,85.31
2022-11-16T00:50:35.211Z,84.42
2022-11-16T00:53:01.825Z,85.26
2022-11-16T00:55:28.447Z,83.69
2022-11-16T00:57:55.066Z,85.22
2022-11-16T01:00:21.700Z,84.80
2022-11-16T01:02:48.314Z,86.83
2022-11-16T01:05:14.937Z,83.58
2022-11-16T01:07:41.574Z,84.30
2022-11-16T01:10:13.858Z,84.48
2022-11-16T01:12:40.476Z,86.46
2022-11-16T01:15:07.998Z,84.79
2022-11-16T01:17:38.360Z,84.36
2022-11-16T01:20:06.237Z,84.40
2022-11-16T01:22:35.230Z,85.31
2022-11-16T01:25:01.855Z,83.97
2022-11-16T01:27:28.479Z,84.69
2022-11-16T01:29:55.094Z,84.57
2022-11-16T01:32:21.723Z,86.20
2022-11-16T01:34:48.335Z,85.27
2022-11-16T01:37:15.302Z,84.34
2022-11-16T01:39:41.918Z,85.25
2022-11-16T01:42:15.295Z,83.97
2022-11-16T01:44:41.763Z,84.48
2022-11-16T01:47:10.231Z,83.73
2022-11-16T01:49:38.313Z,85.61
2022-11-16T01:52:07.077Z,85.49
2022-11-16T01:54:36.395Z,84.67
2022-11-16T01:57:04.370Z,84.05
2022-11-16T01:59:30.981Z,83.89
2022-11-16T02:01:59.264Z,84.30
2022-11-16T02:04:25.879Z,83.39
2022-11-16T02:07:07.613Z,86.08
2022-11-16T02:09:48.495Z,85.45
2022-11-16T02:13:05.792Z,85.86
2022-11-16T02:15:49.297Z,86.17
2022-11-16T02:18:37.790Z,85.37
2022-11-16T02:21:34.982Z,86.10
2022-11-16T02:24:32.106Z,85.82
2022-11-16T02:27:10.769Z,85.30
2022-11-16T02:29:50.100Z,86.00
2022-11-16T02:32:41.164Z,84.95
2022-11-16T02:35:09.767Z,85.72
2022-11-16T02:37:38.684Z,85.51
2022-11-16T02:40:07.994Z,85.31
2022-11-16T02:42:37.940Z,84.94
2022-11-16T02:45:06.268Z,84.88
2022-11-16T02:47:33.194Z,84.52
2022-11-16T02:50:03.586Z,85.79
2022-11-16T02:52:30.207Z,84.77
2022-11-16T02:54:56.881Z,85.12
2022-11-16T02:57:32.942Z,85.75
2022-11-16T02:59:59.573Z,85.38
2022-11-16T03:02:49.350Z,85.28
2022-11-16T03:05:23.179Z,85.22
2022-11-16T03:07:53.179Z,85.38
2022-11-16T03:10:19.803Z,85.33
2022-11-16T03:12:46.421Z,84.57
2022-11-16T03:15:13.031Z,83.72
2022-11-16T03:17:44.505Z,83.90
2022-11-16T03:20:12.286Z,83.38
2022-11-16T03:22:44.065Z,83.57
2022-11-16T03:25:15.887Z,83.27
2022-11-16T03:28:02.480Z,83.59
2022-11-16T03:30:30.335Z,83.62
2022-11-16T03:33:09.056Z,83.45
2022-11-16T03:35:55.307Z,83.44
2022-11-16T03:38:22.205Z,83.11
2022-11-16T03:40:50.239Z,83.23
2022-11-16T03:43:17.513Z,83.65
2022-11-16T03:45:44.125Z,82.93
2022-11-16T03:48:11.433Z,83.05
2022-11-16T03:50:38.830Z,82.54
2022-11-16T03:53:05.430Z,82.86
2022-11-16T03:55:32.122Z,82.71
2022-11-16T03:57:58.746Z,83.46
2022-11-16T04:00:25.378Z,82.66
2022-11-16T04:02:51.990Z,83.29
2022-11-16T04:05:18.668Z,82.41
2022-11-16T04:07:45.299Z,83.30
2022-11-16T04:10:11.971Z,83.63
2022-11-16T04:12:40.335Z,83.74
2022-11-16T04:15:09.733Z,83.17
2022-11-16T04:17:36.344Z,83.06
2022-11-16T04:20:03.823Z,82.91
2022-11-16T04:22:36.900Z,82.56
2022-11-16T04:25:18.840Z,82.38
2022-11-16T04:27:45.449Z,82.14
2022-11-16T04:30:12.362Z,82.37
2022-11-16T04:32:38.976Z,81.81
2022-11-16T04:35:05.675Z,82.75
2022-11-16T04:37:32.291Z,82.49
2022-11-16T04:39:58.894Z,82.96
2022-11-16T04:42:25.497Z,82.79
2022-11-16T04:44:52.108Z,82.66
2022-11-16T04:47:18.749Z,82.57
2022-11-16T04:49:45.361Z,83.00
2022-11-16T04:52:11.972Z,81.91
2022-11-16T04:54:38.592Z,82.33
2022-11-16T04:57:05.192Z,83.24
2022-11-16T04:59:31.802Z,83.24
2022-11-16T05:01:58.413Z,83.70
2022-11-16T05:04:25.017Z,84.15
2022-11-16T05:06:51.671Z,83.93
2022-11-16T05:09:18.323Z,82.91
2022-11-16T05:11:44.946Z,82.92
2022-11-16T05:14:11.635Z,83.02
2022-11-16T05:16:38.239Z,82.98
2022-11-16T05:19:04.853Z,83.45
2022-11-16T05:21:31.451Z,82.78
2022-11-16T05:23:58.042Z,83.25
2022-11-16T05:26:24.654Z,83.25
2022-11-16T05:28:51.264Z,83.68
2022-11-16T05:31:17.877Z,83.06
2022-11-16T05:33:44.491Z,83.66
2022-11-16T05:36:11.098Z,83.06
2022-11-16T05:38:37.699Z,83.70
2022-11-16T05:41:04.308Z,82.82
2022-11-16T05:43:30.904Z,83.19
2022-11-16T05:45:57.519Z,82.48
2022-11-16T05:48:24.133Z,82.12
2022-11-16T05:50:50.739Z,82.01
2022-11-16T05:53:17.347Z,81.49
2022-11-16T05:55:44.021Z,82.48
2022-11-16T05:58:10.658Z,81.47
2022-11-16T06:00:37.281Z,82.04
2022-11-16T06:03:03.978Z,81.65
2022-11-16T06:05:30.634Z,82.38
2022-11-16T06:10:41.347Z,81.03
2022-11-16T06:13:07.963Z,80.35
2022-11-16T06:15:37.486Z,80.31
2022-11-16T06:18:04.249Z,80.29
2022-11-16T06:20:30.856Z,79.94
2022-11-16T06:22:57.473Z,79.68
2022-11-16T06:25:24.082Z,79.21
2022-11-16T06:27:50.713Z,79.85
2022-11-16T06:30:17.433Z,79.47
2022-11-16T06:32:44.037Z,79.39
2022-11-16T06:35:10.633Z,78.65
2022-11-16T06:37:37.237Z,78.13
2022-11-16T06:40:04.077Z,77.08
2022-11-16T06:42:30.688Z,76.99
2022-11-16T06:44:57.314Z,77.28
2022-11-16T06:47:23.931Z,77.85
2022-11-16T06:49:50.569Z,78.20
2022-11-16T06:52:17.234Z,78.55
2022-11-16T06:54:43.962Z,77.66
2022-11-16T06:57:10.565Z,77.25
2022-11-16T06:59:37.179Z,76.70
2022-11-16T07:02:03.839Z,76.16
2022-11-16T07:04:32.109Z,75.25
2022-11-16T07:06:58.795Z,74.57
2022-11-16T07:09:25.440Z,73.81
2022-11-16T07:11:52.046Z,71.74
2022-11-16T07:14:18.653Z,66.55
2022-11-16T07:16:45.251Z,64.79
2022-11-16T07:19:11.859Z,59.60
2022-11-16T07:21:38.468Z,58.20
2022-11-16T07:24:05.141Z,56.95
2022-11-16T07:26:35.937Z,59.69
2022-11-16T07:29:02.550Z,63.13
2022-11-16T07:31:29.161Z,67.63
2022-11-16T07:33:55.822Z,72.74
2022-11-16T07:36:22.432Z,73.29
2022-11-16T07:38:49.039Z,75.30
2022-11-16T07:41:17.340Z,75.00
2022-11-16T07:43:48.477Z,75.66
2022-11-16T07:46:46.146Z,76.73
2022-11-16T07:49:11.265Z,78.43
2022-11-16T07:51:38.279Z,78.82
2022-11-16T07:54:04.884Z,80.10
2022-11-16T07:56:31.497Z,79.81
2022-11-16T07:58:58.127Z,78.60
2022-11-16T08:01:24.806Z,80.18
2022-11-16T08:03:53.159Z,79.84
2022-11-16T08:06:24.850Z,79.88
2022-11-16T08:08:56.800Z,80.06
2022-11-16T08:11:25.101Z,79.75
2022-11-16T08:13:51.726Z,81.52
2022-11-16T08:16:19.812Z,80.74
2022-11-16T08:18:46.440Z,80.13
2022-11-16T08:21:14.157Z,80.49
2022-11-16T08:23:40.809Z,81.17
2022-11-16T08:26:11.936Z,81.11
2022-11-16T08:28:38.567Z,82.67
2022-11-16T08:31:11.090Z,81.31
2022-11-16T08:33:37.708Z,81.96
2022-11-16T08:36:13.607Z,81.45
2022-11-16T08:38:40.753Z,81.40
2022-11-16T08:43:51.576Z,80.35
2022-11-16T08:46:18.191Z,79.58
2022-11-16T08:48:44.851Z,80.58
2022-11-16T08:51:17.819Z,79.78
2022-11-16T08:53:44.940Z,79.57
2022-11-16T08:56:11.751Z,73.71
2022-11-16T08:58:38.675Z,66.74
2022-11-16T09:01:15.641Z,63.38
2022-11-16T09:03:42.309Z,62.38
2022-11-16T09:06:09.382Z,61.34
2022-11-16T09:08:37.032Z,59.79
2022-11-16T09:11:05.110Z,53.94
2022-11-16T09:13:31.713Z,61.72
2022-11-16T09:15:59.179Z,58.63
2022-11-16T09:18:26.037Z,54.03
2022-11-16T09:20:52.651Z,55.16
2022-11-16T09:23:23.921Z,54.31
2022-11-16T09:25:51.823Z,51.98
2022-11-16T09:28:18.545Z,52.98
2022-11-16T09:30:45.607Z,54.75
2022-11-16T09:33:12.290Z,55.31
2022-11-16T09:35:38.964Z,55.85
2022-11-16T09:38:05.712Z,56.08
2022-11-16T09:40:37.331Z,51.80
2022-11-16T09:43:09.904Z,56.02
2022-11-16T09:45:36.382Z,52.11
2022-11-16T09:48:04.043Z,50.32
2022-11-16T09:50:56.777Z,46.59
2022-11-16T09:53:26.038Z,46.36
2022-11-16T09:55:58.646Z,51.87
2022-11-16T09:58:46.009Z,48.32
2022-11-16T10:01:31.294Z,53.07
2022-11-16T10:04:12.952Z,50.68
2022-11-16T10:07:01.452Z,49.49
2022-11-16T10:09:28.087Z,44.44
2022-11-16T10:12:03.646Z,44.68
2022-11-16T10:14:48.838Z,44.68
2022-11-16T10:17:33.318Z,46.03
2022-11-16T10:20:18.192Z,45.34
2022-11-16T10:23:15.879Z,49.39
2022-11-16T10:25:43.469Z,53.34
2022-11-16T10:28:21.485Z,50.28
2022-11-16T10:31:08.196Z,47.70
2022-11-16T10:33:35.066Z,48.28
2022-11-16T10:36:06.653Z,51.89
2022-11-16T10:38:34.348Z,52.70
2022-11-16T10:41:40.668Z,53.52
2022-11-16T10:44:14.935Z,49.18
2022-11-16T10:46:42.699Z,48.86
2022-11-16T10:49:21.208Z,46.62
2022-11-16T10:51:51.563Z,44.60
2022-11-16T10:54:18.210Z,44.96
2022-11-16T10:56:46.211Z,44.12
2022-11-16T10:59:13.642Z,46.03
2022-11-16T11:01:46.934Z,49.07
2022-11-16T11:04:38.320Z,45.03
2022-11-16T11:07:33.231Z,47.33
2022-11-16T11:09:59.893Z,52.55
2022-11-16T11:12:26.819Z,54.32
2022-11-16T11:14:58.346Z,56.35
2022-11-16T11:17:25.084Z,56.99
2022-11-16T11:20:08.277Z,55.93
2022-11-16T11:23:00.344Z,57.25
2022-11-16T11:25:48.603Z,59.54
2022-11-16T11:28:25.918Z,57.92
2022-11-16T11:31:15.358Z,55.16
2022-11-16T11:33:52.839Z,49.90
2022-11-16T11:36:24.044Z,47.97
2022-11-16T11:39:03.311Z,41.57
2022-11-16T11:41:43.091Z,39.27
2022-11-16T11:44:12.590Z,35.19
2022-11-16T11:47:23.637Z,40.41
2022-11-16T11:49:33.851Z,34.45
2022-11-16T11:52:04.628Z,31.73
2022-11-16T11:54:32.834Z,31.76
2022-11-16T11:57:00.874Z,34.71
2022-11-16T11:59:27.530Z,30.53
2022-11-16T12:02:09.790Z,32.66
2022-11-16T12:04:42.598Z,31.89
2022-11-16T12:07:32.613Z,34.01
2022-11-16T12:10:05.683Z,30.18
2022-11-16T12:12:32.206Z,33.99
2022-11-16T12:15:04.660Z,31.70
2022-11-16T12:17:52.351Z,32.64
2022-11-16T12:20:25.989Z,29.41
2022-11-16T12:23:25.890Z,33.57
2022-11-16T12:25:52.382Z,32.27
2022-11-16T12:28:56.074Z,31.88
2022-11-16T12:31:53.855Z,31.46
2022-11-16T12:35:00.597Z,29.79
2022-11-16T12:37:58.818Z,26.38
2022-11-16T12:40:55.858Z,25.91
2022-11-16T12:43:31.692Z,28.07
2022-11-16T12:45:58.363Z,29.93
2022-11-16T12:49:13.015Z,33.20
2022-11-16T12:51:55.423Z,31.63
2022-11-16T12:55:25.537Z,41.09
2022-11-16T12:58:18.934Z,37.76
2022-11-16T13:00:50.574Z,43.12
2022-11-16T13:03:38.791Z,45.04
2022-11-16T13:06:11.428Z,48.04
2022-11-16T13:08:45.796Z,39.43
2022-11-16T13:11:19.926Z,40.32
2022-11-16T13:13:52.643Z,34.80
2022-11-16T13:16:19.795Z,32.15
2022-11-16T13:18:47.923Z,42.20
2022-11-16T13:21:38.580Z,34.46
2022-11-16T13:24:08.257Z,33.50
2022-11-16T13:26:49.529Z,31.91
2022-11-16T13:29:34.435Z,29.16
2022-11-16T13:32:11.003Z,30.00
2022-11-16T13:34:38.262Z,30.82
2022-11-16T13:37:39.414Z,32.80
2022-11-16T13:40:05.995Z,33.93
2022-11-16T13:42:34.214Z,32.30
2022-11-16T13:45:19.633Z,33.06
2022-11-16T13:47:56.890Z,37.05
2022-11-16T13:50:41.364Z,38.23
2022-11-16T13:56:00.661Z,46.19
2022-11-16T13:58:27.669Z,47.79
2022-11-16T14:01:14.577Z,45.37
2022-11-16T14:03:45.070Z,37.69
2022-11-16T14:06:23.902Z,31.92
2022-11-16T14:08:54.593Z,34.80
2022-11-16T14:11:37.379Z,32.69
2022-11-16T14:14:10.019Z,32.45
2022-11-16T14:16:49.372Z,34.01
2022-11-16T14:19:40.993Z,36.10
2022-11-16T14:22:08.199Z,44.16
2022-11-16T14:25:13.704Z,46.55
2022-11-16T14:27:48.935Z,51.01
2022-11-16T14:30:22.800Z,52.41
2022-11-16T14:32:50.390Z,53.73
2022-11-16T14:35:27.788Z,54.63
2022-11-16T14:37:59.163Z,54.25
2022-11-16T14:40:25.783Z,53.67
2022-11-16T14:43:15.468Z,55.61
2022-11-16T14:45:38.858Z,54.31
2022-11-16T14:48:16.917Z,54.67
2022-11-16T14:50:44.049Z,56.72
2022-11-16T14:53:13.348Z,55.67
2022-11-16T14:55:43.812Z,55.80
2022-11-16T14:58:20.707Z,55.71
2022-11-16T15:00:57.555Z,55.30
2022-11-16T15:03:25.111Z,55.26
2022-11-16T15:05:51.767Z,56.20
2022-11-16T15:08:31.243Z,57.34
2022-11-16T15:10:57.863Z,57.57
2022-11-16T15:13:24.478Z,58.41
2022-11-16T15:16:10.763Z,57.98
2022-11-16T15:18:37.371Z,57.48
2022-11-16T15:21:03.992Z,57.54
2022-11-16T15:23:31.018Z,57.46
2022-11-16T15:25:57.768Z,57.66
2022-11-16T15:28:28.427Z,58.62
2022-11-16T15:30:57.136Z,58.47
2022-11-16T15:33:44.264Z,59.14
2022-11-16T15:36:32.108Z,59.84
2022-11-16T15:38:58.765Z,58.83
2022-11-16T15:41:25.504Z,59.30
2022-11-16T15:44:12.470Z,59.01
2022-11-16T15:46:39.958Z,59.37
2022-11-16T15:49:22.124Z,60.48
2022-11-16T15:51:48.745Z,60.64
2022-11-16T15:54:28.223Z,60.97
2022-11-16T15:56:56.357Z,60.47
2022-11-16T15:59:33.660Z,61.38
2022-11-16T16:02:00.305Z,62.52
2022-11-16T16:04:26.997Z,61.75
2022-11-16T16:06:57.514Z,62.69
2022-11-16T16:09:26.758Z,61.60
2022-11-16T16:11:54.672Z,61.94
2022-11-16T16:14:23.417Z,61.69
2022-11-16T16:16:51.102Z,61.10
2022-11-16T16:19:33.344Z,61.68
2022-11-16T16:22:00.063Z,61.40
2022-11-16T16:24:45.119Z,62.13
2022-11-16T16:27:15.593Z,61.99
2022-11-16T16:29:44.986Z,62.93
2022-11-16T16:32:26.364Z,65.53
2022-11-16T16:34:53.897Z,64.82
2022-11-16T16:37:20.832Z,64.95
2022-11-16T16:39:47.604Z,65.65
2022-11-16T16:42:15.773Z,66.44
2022-11-16T16:44:42.932Z,65.25
2022-11-16T16:47:09.596Z,66.28
2022-11-16T16:49:36.407Z,66.65
2022-11-16T16:52:03.587Z,66.00
2022-11-16T16:54:30.383Z,67.85
2022-11-16T16:56:57.227Z,67.93
2022-11-16T16:59:24.483Z,67.19
2022-11-16T17:01:51.798Z,69.98
2022-11-16T17:04:18.973Z,70.63
2022-11-16T17:06:46.713Z,69.23
2022-11-16T17:09:14.241Z,68.55
2022-11-16T17:11:41.575Z,69.56
2022-11-16T17:14:08.651Z,70.57
2022-11-16T17:16:36.073Z,68.83
2022-11-16T17:19:03.702Z,70.21
2022-11-16T17:21:31.021Z,69.28
2022-11-16T17:23:58.200Z,70.91
2022-11-16T17:26:25.401Z,71.26
2022-11-16T17:28:58.679Z,70.82
2022-11-16T17:31:26.055Z,69.08
2022-11-16T17:33:53.273Z,69.44
2022-11-16T17:36:20.715Z,67.94
2022-11-16T17:38:48.189Z,69.34
2022-11-16T17:41:17.463Z,69.09
2022-11-16T17:43:46.717Z,69.51
2022-11-16T17:46:17.971Z,68.77
2022-11-16T17:48:46.162Z,70.39
2022-11-16T17:51:14.455Z,69.56
2022-11-16T17:53:41.657Z,70.76
2022-11-16T17:56:10.217Z,67.76
2022-11-16T17:58:37.708Z,68.92
2022-11-16T18:01:04.948Z,69.38
2022-11-16T18:03:32.207Z,67.73
2022-11-16T18:06:09.977Z,67.97
2022-11-16T18:08:36.791Z,69.16
2022-11-16T18:11:07.525Z,68.21
2022-11-16T18:13:34.478Z,68.30
2022-11-16T18:16:18.602Z,68.27
2022-11-16T18:18:45.940Z,69.55
2022-11-16T18:21:19.853Z,68.98
2022-11-16T18:23:47.139Z,68.38
2022-11-16T18:26:16.064Z,67.81
2022-11-16T18:28:44.715Z,67.97
2022-11-16T18:31:15.152Z,68.71
2022-11-16T18:33:41.844Z,68.96
2022-11-16T18:36:08.844Z,68.52
2022-11-16T18:38:35.558Z,69.65
2022-11-16T18:41:06.057Z,70.57
2022-11-16T18:43:33.138Z,69.52
2022-11-16T18:46:00.257Z,69.43
2022-11-16T18:48:26.864Z,70.18
2022-11-16T18:50:56.898Z,69.33
2022-11-16T18:53:23.569Z,69.95
2022-11-16T18:55:54.914Z,70.60
2022-11-16T18:58:49.395Z,70.06
2022-11-16T19:01:12.806Z,70.10
2022-11-16T19:03:39.546Z,70.77
2022-11-16T19:06:06.958Z,69.98
2022-11-16T19:08:33.798Z,70.08
2022-11-16T19:11:08.153Z,70.96
2022-11-16T19:13:34.878Z,71.55
2022-11-16T19:16:01.724Z,72.82
2022-11-16T19:18:31.579Z,72.37
2022-11-16T19:21:12.041Z,71.60
2022-11-16T19:23:40.146Z,71.41
2022-11-16T19:26:06.950Z,71.64
2022-11-16T19:28:37.417Z,71.34
2022-11-16T19:31:16.528Z,71.30
2022-11-16T19:33:43.419Z,70.43
2022-11-16T19:36:14.221Z,71.18
2022-11-16T19:38:41.026Z,71.02
2022-11-16T19:41:07.913Z,71.48
2022-11-16T19:43:34.781Z,69.91
2022-11-16T19:46:05.882Z,69.57
2022-11-16T19:48:32.545Z,70.88
2022-11-16T19:51:12.525Z,70.61
2022-11-16T19:53:39.349Z,70.11
2022-11-16T19:56:06.660Z,69.63
2022-11-16T19:58:36.343Z,70.74
2022-11-16T20:01:04.354Z,69.89
2022-11-16T20:03:31.676Z,68.66
2022-11-16T20:06:25.349Z,70.01
2022-11-16T20:08:56.407Z,68.58
2022-11-16T20:11:24.208Z,69.44
2022-11-16T20:13:51.644Z,68.71
2022-11-16T20:16:19.278Z,68.99
2022-11-16T20:18:45.980Z,69.54
2022-11-16T20:21:23.635Z,69.30
2022-11-16T20:23:50.477Z,70.52
2022-11-16T20:26:17.531Z,71.26
2022-11-16T20:28:44.366Z,71.92
2022-11-16T20:31:16.138Z,71.84
2022-11-16T20:33:48.949Z,71.75
2022-11-16T20:36:15.733Z,71.00
2022-11-16T20:38:42.456Z,70.06
2022-11-16T20:41:14.009Z,69.47
2022-11-16T20:43:41.986Z,69.63
2022-11-16T20:46:10.458Z,68.47
2022-11-16T20:48:37.852Z,69.06
2022-11-16T20:51:05.668Z,68.25
2022-11-16T20:53:32.651Z,69.88
2022-11-16T20:56:00.156Z,69.90
2022-11-16T20:58:26.777Z,69.44
2022-11-16T21:00:53.523Z,69.77
2022-11-16T21:03:20.188Z,69.95
2022-11-16T21:05:50.762Z,70.21
2022-11-16T21:08:17.551Z,70.91
2022-11-16T21:10:44.602Z,70.50
2022-11-16T21:13:13.391Z,71.92
2022-11-16T21:15:40.022Z,71.52
2022-11-16T21:18:06.651Z,72.32
2022-11-16T21:20:33.302Z,71.99
2022-11-16T21:22:59.925Z,71.29
2022-11-16T21:25:26.577Z,71.88
2022-11-16T21:27:53.229Z,71.53
2022-11-16T21:30:19.943Z,71.52
2022-11-16T21:32:46.599Z,71.84
2022-11-16T21:35:13.258Z,70.88
2022-11-16T21:37:39.888Z,70.91
2022-11-16T21:40:07.026Z,71.53
2022-11-16T21:42:33.662Z,70.90
2022-11-16T21:45:00.281Z,71.73
2022-11-16T21:47:26.900Z,70.63
2022-11-16T21:50:29.682Z,70.78
2022-11-16T21:52:40.122Z,71.28
2022-11-16T21:55:07.031Z,70.81
2022-11-16T21:57:33.661Z,69.87
2022-11-16T22:00:00.291Z,70.94
2022-11-16T22:02:26.926Z,69.68
2022-11-16T22:04:53.559Z,70.42
2022-11-16T22:07:20.252Z,70.10
2022-11-16T22:09:46.908Z,70.66
2022-11-16T22:12:13.551Z,70.61
2022-11-16T22:14:40.173Z,70.19
2022-11-16T22:17:06.793Z,70.26
2022-11-16T22:19:33.419Z,71.24
2022-11-16T22:22:00.042Z,69.74
2022-11-16T22:24:26.729Z,71.44
2022-11-16T22:26:53.366Z,70.21
2022-11-16T22:29:19.997Z,70.55
2022-11-16T22:31:46.636Z,71.16
2022-11-16T22:34:13.271Z,71.00
2022-11-16T22:36:39.906Z,71.56
2022-11-16T22:39:06.533Z,71.35
2022-11-16T22:41:33.169Z,71.33
2022-11-16T22:43:59.782Z,71.45
2022-11-16T22:46:26.549Z,71.71
2022-11-16T22:48:53.190Z,72.17
2022-11-16T22:51:24.361Z,70.90
2022-11-16T22:53:55.066Z,71.71
2022-11-16T22:56:21.724Z,71.00
2022-11-16T22:58:48.380Z,70.50
2022-11-16T23:01:15.032Z,70.59
2022-11-16T23:03:41.909Z,71.15
2022-11-16T23:06:08.777Z,71.65
2022-11-16T23:08:35.891Z,71.62
2022-11-16T23:11:05.226Z,72.60
2022-11-16T23:13:32.073Z,72.02
2022-11-16T23:16:04.466Z,72.76
2022-11-16T23:18:31.168Z,72.15
2022-11-16T23:20:57.793Z,71.62
2022-11-16T23:23:24.450Z,71.33
2022-11-16T23:25:51.078Z,71.74
2022-11-16T23:28:18.998Z,71.33
2022-11-16T23:30:46.099Z,71.49
2022-11-16T23:33:12.819Z,72.04
2022-11-16T23:35:39.451Z,72.57
2022-11-16T23:38:07.254Z,73.23
2022-11-16T23:40:38.658Z,72.65
2022-11-16T23:43:06.270Z,72.02
2022-11-16T23:45:32.944Z,71.56
2022-11-16T23:47:59.570Z,71.76
2022-11-16T23:50:26.189Z,71.80
2022-11-16T23:52:52.851Z,71.32
2022-11-16T23:55:19.510Z,71.12
2022-11-16T23:57:46.155Z,71.37
